createdAt,value
2023-02-07T00:02:03.209Z,-3.00
2023-02-07T00:07:06.661Z,-3.70
2023-02-07T00:12:11.343Z,-3.70
2023-02-07T00:17:14.628Z,-3.80
2023-02-07T00:22:18.010Z,-3.40
2023-02-07T00:27:22.957Z,-3.90
2023-02-07T00:32:26.269Z,-4.00
2023-02-07T00:37:29.625Z,-4.00
2023-02-07T00:42:34.759Z,-4.10
2023-02-07T00:47:38.101Z,-4.20
2023-02-07T00:52:41.510Z,-3.10
2023-02-07T00:57:46.209Z,-3.20
2023-02-07T01:02:51.482Z,-4.40
2023-02-07T01:07:56.091Z,-4.20
2023-02-07T01:13:00.902Z,-3.20
2023-02-07T01:18:04.545Z,-4.10
2023-02-07T01:23:08.010Z,-4.30
2023-02-07T01:28:14.260Z,-4.40
2023-02-07T01:33:17.775Z,-4.50
2023-02-07T01:38:21.068Z,-3.80
2023-02-07T01:43:27.161Z,-4.80
2023-02-07T01:48:33.374Z,-4.90
2023-02-07T01:53:38.812Z,-3.90
2023-02-07T01:58:44.870Z,-3.80
2023-02-07T02:03:50.645Z,-5.20
2023-02-07T02:08:57.971Z,-3.80
2023-02-07T02:14:10.077Z,-5.30
2023-02-07T02:19:44.637Z,-5.40
2023-02-07T02:25:19.392Z,-5.30
2023-02-07T02:30:50.596Z,-5.50
2023-02-07T02:36:04.319Z,-5.60
2023-02-07T02:41:11.757Z,-5.50
2023-02-07T02:46:19.645Z,-5.40
2023-02-07T02:51:24.755Z,-5.60
2023-02-07T02:56:52.895Z,-5.60
2023-02-07T03:02:07.366Z,-4.10
2023-02-07T03:07:26.027Z,-5.70
2023-02-07T03:12:39.173Z,-5.90
2023-02-07T03:17:56.089Z,-6.00
2023-02-07T03:23:02.885Z,-5.50
2023-02-07T03:28:09.387Z,-6.00
2023-02-07T03:33:15.182Z,-6.00
2023-02-07T03:38:20.409Z,-6.00
2023-02-07T03:43:27.213Z,-6.00
2023-02-07T03:48:30.600Z,-4.60
2023-02-07T03:53:35.473Z,-6.00
2023-02-07T03:58:38.841Z,-6.00
2023-02-07T04:03:42.273Z,-6.10
2023-02-07T04:08:47.245Z,-6.30
2023-02-07T04:13:50.592Z,-6.30
2023-02-07T04:18:53.895Z,-7.30
2023-02-07T04:23:58.653Z,-6.50
2023-02-07T04:29:02.181Z,-6.20
2023-02-07T04:34:05.965Z,-6.40
2023-02-07T04:39:10.671Z,-5.60
2023-02-07T04:44:14.073Z,-5.80
2023-02-07T04:49:17.457Z,-6.20
2023-02-07T04:54:23.319Z,-6.30
2023-02-07T04:59:26.632Z,-3.50
2023-02-07T05:04:30.070Z,-6.40
2023-02-07T05:09:34.752Z,-5.20
2023-02-07T05:14:38.024Z,-6.40
2023-02-07T05:19:41.388Z,-5.70
2023-02-07T05:24:47.702Z,-6.30
2023-02-07T05:29:51.084Z,-6.30
2023-02-07T05:34:54.467Z,-6.30
2023-02-07T05:39:59.197Z,-6.30
2023-02-07T05:45:02.983Z,-6.40
2023-02-07T05:50:06.936Z,-6.50
2023-02-07T05:55:13.136Z,-6.60
2023-02-07T06:00:18.955Z,-6.70
2023-02-07T06:05:23.149Z,-6.60
2023-02-07T06:10:27.856Z,-6.60
2023-02-07T06:15:31.282Z,-9.00
2023-02-07T06:20:34.588Z,-6.60
2023-02-07T06:25:39.478Z,-6.60
2023-02-07T06:30:42.966Z,-6.70
2023-02-07T06:35:47.459Z,-6.70
2023-02-07T06:40:52.137Z,-6.70
2023-02-07T06:45:55.394Z,-6.70
2023-02-07T06:50:58.656Z,-6.30
2023-02-07T06:56:03.520Z,-6.60
2023-02-07T07:01:07.421Z,-6.50
2023-02-07T07:06:10.857Z,-6.50
2023-02-07T07:11:15.686Z,-6.40
2023-02-07T07:16:19.144Z,-6.20
2023-02-07T07:21:22.692Z,-6.00
2023-02-07T07:26:36.589Z,-5.80
2023-02-07T07:31:46.605Z,-5.60
2023-02-07T07:36:49.888Z,-5.40
2023-02-07T07:41:54.612Z,-5.10
2023-02-07T07:47:13.834Z,-4.80
2023-02-07T07:52:17.075Z,-4.60
2023-02-07T07:57:22.244Z,-3.50
2023-02-07T08:02:25.529Z,-3.80
2023-02-07T08:07:28.819Z,-3.50
2023-02-07T08:12:33.632Z,-2.90
2023-02-07T08:17:37.141Z,-1.30
2023-02-07T08:22:40.768Z,-0.10
2023-02-07T08:27:45.683Z,0.30
2023-02-07T08:32:49.065Z,0.90
2023-02-07T08:37:52.425Z,1.70
2023-02-07T08:42:57.296Z,1.90
2023-02-07T08:48:00.763Z,2.20
2023-02-07T08:53:04.060Z,3.10
2023-02-07T08:58:08.773Z,3.30
2023-02-07T09:03:13.668Z,3.40
2023-02-07T09:08:18.895Z,3.50
2023-02-07T09:13:23.609Z,4.00
2023-02-07T09:18:27.664Z,4.10
2023-02-07T09:23:33.098Z,3.60
2023-02-07T09:28:37.974Z,4.00
2023-02-07T09:33:41.873Z,3.80
2023-02-07T09:38:45.293Z,4.30
2023-02-07T09:43:59.510Z,7.00
2023-02-07T09:49:07.774Z,4.50
2023-02-07T09:54:23.315Z,4.60
2023-02-07T09:59:35.077Z,4.70
2023-02-07T10:04:42.934Z,4.70
2023-02-07T10:09:47.188Z,5.60
2023-02-07T10:15:17.095Z,4.60
2023-02-07T10:20:33.708Z,5.50
2023-02-07T10:25:48.603Z,5.50
2023-02-07T10:30:55.881Z,6.20
2023-02-07T10:36:02.737Z,7.30
2023-02-07T10:41:11.789Z,8.20
2023-02-07T10:46:20.481Z,8.40
2023-02-07T10:51:28.630Z,8.20
2023-02-07T10:56:34.519Z,7.70
2023-02-07T11:01:39.528Z,8.00
2023-02-07T11:06:42.851Z,8.20
2023-02-07T11:11:50.762Z,7.80
2023-02-07T11:16:56.715Z,7.80
2023-02-07T11:22:10.690Z,9.20
2023-02-07T11:27:17.088Z,10.00
2023-02-07T11:32:24.546Z,9.30
2023-02-07T11:37:30.116Z,9.50
2023-02-07T11:42:33.429Z,9.70
2023-02-07T11:47:38.696Z,10.20
2023-02-07T11:52:50.901Z,10.00
2023-02-07T11:57:58.394Z,10.80
2023-02-07T12:03:04.949Z,10.70
2023-02-07T12:08:14.263Z,10.30
2023-02-07T12:13:21.908Z,10.20
2023-02-07T12:18:29.791Z,10.20
2023-02-07T12:23:43.698Z,9.70
2023-02-07T12:29:01.312Z,11.00
2023-02-07T12:34:19.838Z,12.00
2023-02-07T12:39:29.791Z,11.20
2023-02-07T12:44:39.895Z,11.40
2023-02-07T12:50:03.822Z,11.00
2023-02-07T12:55:21.739Z,10.00
2023-02-07T13:00:33.273Z,11.60
2023-02-07T13:05:47.063Z,10.80
2023-02-07T13:11:01.370Z,9.40
2023-02-07T13:16:14.678Z,6.40
2023-02-07T13:21:26.179Z,7.10
2023-02-07T13:26:31.688Z,9.00
2023-02-07T13:31:40.902Z,9.90
2023-02-07T13:36:49.612Z,10.60
2023-02-07T13:42:04.622Z,9.40
2023-02-07T13:47:28.246Z,9.70
2023-02-07T13:52:42.231Z,7.60
2023-02-07T13:58:03.474Z,6.80
2023-02-07T14:03:20.787Z,6.40
2023-02-07T14:08:26.289Z,6.10
2023-02-07T14:13:33.450Z,6.80
2023-02-07T14:18:50.821Z,9.00
2023-02-07T14:24:19.116Z,10.20
2023-02-07T14:29:42.380Z,8.20
2023-02-07T14:35:02.449Z,10.60
2023-02-07T14:40:23.645Z,10.40
2023-02-07T14:45:29.782Z,11.80
2023-02-07T14:50:33.872Z,11.70
2023-02-07T14:55:48.860Z,10.60
2023-02-07T15:00:57.040Z,9.20
2023-02-07T15:06:01.993Z,11.80
2023-02-07T15:11:08.996Z,9.60
2023-02-07T15:16:17.691Z,8.00
2023-02-07T15:21:24.195Z,6.50
2023-02-07T15:26:29.103Z,7.40
2023-02-07T15:31:38.517Z,7.60
2023-02-07T15:36:43.355Z,5.50
2023-02-07T15:41:49.555Z,4.20
2023-02-07T15:46:54.606Z,3.80
2023-02-07T15:52:03.329Z,3.10
2023-02-07T15:57:14.810Z,3.30
2023-02-07T16:02:25.491Z,3.20
2023-02-07T16:07:30.037Z,2.70
2023-02-07T16:12:49.850Z,2.30
2023-02-07T16:17:53.495Z,1.70
2023-02-07T16:22:58.980Z,1.50
2023-02-07T16:28:09.081Z,1.20
2023-02-07T16:33:14.232Z,1.20
2023-02-07T16:38:17.540Z,1.20
2023-02-07T16:43:35.447Z,0.80
2023-02-07T16:48:38.737Z,0.70
2023-02-07T16:53:42.010Z,0.30
2023-02-07T16:58:46.695Z,0.20
2023-02-07T17:03:50.401Z,0.20
2023-02-07T17:08:56.520Z,-0.40
2023-02-07T17:14:01.503Z,-0.50
2023-02-07T17:19:08.088Z,-0.70
2023-02-07T17:24:12.216Z,-1.20
2023-02-07T17:29:18.387Z,-1.10
2023-02-07T17:34:21.747Z,-1.10
2023-02-07T17:39:25.067Z,-1.00
2023-02-07T17:44:30.020Z,-1.20
2023-02-07T17:49:33.342Z,-1.20
2023-02-07T17:54:36.700Z,-1.20
2023-02-07T17:59:41.583Z,-1.60
2023-02-07T18:04:45.129Z,-1.80
2023-02-07T18:09:48.456Z,-1.80
2023-02-07T18:14:55.710Z,-1.90
2023-02-07T18:20:02.079Z,-1.90
2023-02-07T18:25:15.610Z,-1.90
2023-02-07T18:30:25.623Z,0.90
2023-02-07T18:35:32.763Z,-1.90
2023-02-07T18:40:36.460Z,-2.10
2023-02-07T18:45:42.942Z,-2.10
2023-02-07T18:50:46.958Z,-1.70
2023-02-07T18:55:50.421Z,-2.40
2023-02-07T19:00:55.161Z,-2.40
2023-02-07T19:05:59.030Z,-2.40
2023-02-07T19:11:05.866Z,-2.50
2023-02-07T19:16:13.853Z,-2.50
2023-02-07T19:21:20.875Z,-2.50
2023-02-07T19:26:25.252Z,-2.50
2023-02-07T19:31:30.252Z,-2.40
2023-02-07T19:36:33.699Z,-2.50
2023-02-07T19:41:37.026Z,-2.50
2023-02-07T19:46:42.262Z,-2.60
2023-02-07T19:51:45.789Z,-2.80
2023-02-07T19:56:51.406Z,-2.80
2023-02-07T20:01:56.574Z,-2.90
2023-02-07T20:07:00.230Z,-3.00
2023-02-07T20:12:03.625Z,-3.20
2023-02-07T20:17:08.340Z,-3.30
2023-02-07T20:22:11.807Z,-2.60
2023-02-07T20:27:15.561Z,-3.30
2023-02-07T20:32:20.453Z,-3.30
2023-02-07T20:37:23.791Z,-3.40
2023-02-07T20:42:27.302Z,-2.50
2023-02-07T20:47:32.297Z,-3.10
2023-02-07T20:52:37.240Z,-3.30
2023-02-07T20:57:41.117Z,-3.30
2023-02-07T21:02:46.181Z,-3.40
2023-02-07T21:07:49.686Z,-3.50
2023-02-07T21:12:53.374Z,-3.80
2023-02-07T21:17:58.207Z,-3.90
2023-02-07T21:23:01.561Z,-3.80
2023-02-07T21:28:05.146Z,-3.30
2023-02-07T21:33:10.160Z,-4.00
2023-02-07T21:38:13.539Z,-4.10
2023-02-07T21:48:22.492Z,-4.20
2023-02-07T21:53:25.889Z,-4.30
2023-02-07T21:58:29.237Z,-3.20
2023-02-07T22:03:33.941Z,-4.40
2023-02-07T22:08:38.462Z,-4.50
2023-02-07T22:13:43.258Z,-4.60
2023-02-07T22:18:48.154Z,-4.60
2023-02-07T22:23:51.621Z,-4.50
2023-02-07T22:28:55.704Z,-4.20
2023-02-07T22:34:03.688Z,-4.90
2023-02-07T22:39:08.942Z,-5.00
2023-02-07T22:44:12.873Z,-4.40
2023-02-07T22:49:17.853Z,-5.10
2023-02-07T22:54:21.188Z,-5.20
2023-02-07T22:59:24.686Z,-5.10
2023-02-07T23:04:29.556Z,-5.10
2023-02-07T23:09:32.968Z,-5.10
2023-02-07T23:14:36.998Z,-5.30
2023-02-07T23:19:41.859Z,-5.30
2023-02-07T23:24:45.330Z,-5.30
2023-02-07T23:29:49.080Z,-5.40
2023-02-07T23:34:53.891Z,-5.40
2023-02-07T23:39:57.451Z,-5.40
2023-02-07T23:45:02.132Z,-5.40
2023-02-07T23:50:10.169Z,-5.60
2023-02-07T23:55:13.629Z,-5.50
